ESNU

Umeå Airport

Umeå, Sweden
METAR ESNU 232220Z 31005KT CAVOK M20/M22 Q1040 R14/72//60
Observed Flight Rules
Feb-23 @ 22:20 UTC (18 minutes ago) Visual Flight Rules
Wind Visibility Clouds
310° at 5 knots 10,000+ meters
  • Clear skies
Temperatures Readings
Current -20°C / -4°F
Dewpoint -22°C / -8°F
Humidity 84%
Altimeter 30.71" Hg
Pressure 1040 hPa
Elevation 14
METAR ESNU 232220Z 31005KT CAVOK M20/M22 Q1040 R14/72//60
Observed Flight Rules
Feb-23 @ 22:20 UTC
(18 minutes ago)
VFR
Wind Visibility
310° at 5 knots 10,000+ meters
Clouds
  • Clear skies
Temperature Dewpoint
-20°C / -4°F -22°C / -8°F
Humidity Altimeter Pressure
84% 30.71" Hg 1040 hPa